EST,Max TemperatureF,Mean TemperatureF,Min TemperatureF,Max Dew PointF,MeanDew PointF,Min DewpointF,Max Humidity, Mean Humidity, Min Humidity, Max Sea Level PressureIn, Mean Sea Level PressureIn, Min Sea Level PressureIn, Max VisibilityMiles, Mean VisibilityMiles, Min VisibilityMiles, Max Wind SpeedMPH, Mean Wind SpeedMPH, Max Gust SpeedMPH,PrecipitationIn, CloudCover, Events, WindDirDegrees
2012-11-1,79,72,65,64,62,60,93,75,56,30.11,30.06,30.03,10,10,10,8,3,14,0.00,1,,231
2012-11-2,79,73,67,68,65,58,90,76,61,30.10,30.07,30.04,10,10,10,15,5,21,0.01,2,Rain,338
2012-11-3,78,74,70,63,61,59,78,67,56,30.14,30.09,30.06,10,10,10,15,7,17,0.00,0,,30
2012-11-4,81,76,71,67,64,61,84,69,54,30.12,30.06,30.01,10,10,10,12,7,23,0.00,0,,69
2012-11-5,81,77,72,66,65,62,79,69,58,30.02,29.99,29.95,10,10,10,10,5,25,0.00,3,,36
2012-11-6,80,75,69,70,67,64,90,79,67,29.97,29.92,29.88,10,10,10,10,4,15,0.00,1,,289
2012-11-7,77,73,69,69,63,57,87,71,54,30.01,29.94,29.88,10,10,10,20,11,26,0.00,3,,330
2012-11-8,71,68,64,59,51,44,73,58,42,30.14,30.07,29.99,10,10,10,20,11,25,T,2,,25
2012-11-9,75,69,62,60,55,47,68,58,48,30.19,30.15,30.11,10,10,10,18,11,24,0.00,1,,40
2012-11-10,76,72,68,61,59,56,73,66,58,30.23,30.18,30.14,10,10,10,13,10,20,0.00,6,,43
2012-11-11,80,75,69,65,63,61,78,66,54,30.20,30.17,30.14,10,10,10,18,10,24,0.00,3,,54
2012-11-12,81,75,69,70,68,65,90,76,62,30.17,30.13,30.09,10,10,10,18,9,24,0.09,2,Rain,57
2012-11-13,79,74,69,69,68,66,100,87,74,30.12,30.08,30.04,10,10,10,15,9,20,0.00,1,,36
2012-11-14,79,74,69,69,68,67,97,84,71,30.12,30.08,30.04,10,10,10,15,8,18,0.00,1,,21
2012-11-15,80,76,72,68,67,66,90,79,67,30.11,30.06,30.03,10,10,10,13,7,16,0.00,0,,23
2012-11-16,74,72,70,68,66,65,90,82,73,30.11,30.07,30.03,10,10,10,17,11,24,0.00,2,,17
2012-11-17,77,74,70,69,67,66,97,86,74,30.09,30.05,30.01,10,10,10,16,9,23,0.00,1,,34
2012-11-18,78,75,71,68,67,65,84,79,74,30.11,30.06,30.01,10,10,10,16,11,22,T,1,,31
2012-11-19,75,72,68,66,62,57,90,74,58,30.14,30.08,30.04,10,10,10,13,11,18,0.00,1,,17
2012-11-20,70,68,66,63,60,58,87,79,70,30.08,30.03,29.98,10,10,10,15,9,20,0.00,7,,357
2012-11-21,74,71,67,63,59,51,81,67,53,30.06,30.01,29.98,10,10,10,20,13,25,0.00,2,,359
2012-11-22,72,69,65,55,51,47,68,55,41,30.14,30.08,30.04,10,10,10,18,13,28,0.00,0,,9
2012-11-23,71,67,63,59,56,46,78,65,52,30.18,30.12,30.09,10,10,10,16,11,23,0.00,0,,4
2012-11-24,73,69,64,62,57,52,87,72,57,30.16,30.10,30.06,10,10,10,13,6,17,0.00,0,,347
2012-11-25,69,65,61,63,58,52,87,73,58,30.16,30.11,30.08,10,10,10,15,6,18,0.00,1,,15
2012-11-26,76,68,59,66,62,57,93,79,64,30.19,30.14,30.11,10,10,10,17,6,22,0.00,1,,25
2012-11-27,79,75,71,71,68,63,93,79,64,30.17,30.13,30.09,10,10,6,16,8,22,0.03,5,Rain,96
2012-11-28,75,73,70,70,67,64,97,85,73,30.20,30.15,30.11,10,10,10,16,7,22,0.00,0,,7
2012-11-29,78,73,67,66,65,64,87,76,64,30.20,30.15,30.11,10,10,10,18,12,25,0.00,2,,42
2012-11-30,78,74,69,67,65,64,90,80,69,30.17,30.12,30.09,10,10,10,18,12,26,0.00,2,,49